createdAt,value
2022-11-23T00:00:16.949Z,89.81
2022-11-23T00:02:43.670Z,89.65
2022-11-23T00:05:10.625Z,89.67
2022-11-23T00:07:37.401Z,90.16
2022-11-23T00:10:04.305Z,90.31
2022-11-23T00:12:31.023Z,90.25
2022-11-23T00:14:57.716Z,90.24
2022-11-23T00:17:24.446Z,90.45
2022-11-23T00:19:51.189Z,90.35
2022-11-23T00:22:17.930Z,90.54
2022-11-23T00:24:44.670Z,90.58
2022-11-23T00:27:11.409Z,90.36
2022-11-23T00:29:38.123Z,90.37
2022-11-23T00:32:05.593Z,90.68
2022-11-23T00:34:33.204Z,90.31
2022-11-23T00:36:59.954Z,90.56
2022-11-23T00:39:26.670Z,90.40
2022-11-23T00:41:53.452Z,90.57
2022-11-23T00:44:20.120Z,90.64
2022-11-23T00:46:46.830Z,90.80
2022-11-23T00:49:13.572Z,91.02
2022-11-23T00:51:40.574Z,91.11
2022-11-23T00:54:08.617Z,91.11
2022-11-23T00:56:35.823Z,91.21
2022-11-23T00:59:02.879Z,91.04
2022-11-23T01:01:33.791Z,91.21
2022-11-23T01:04:01.584Z,91.36
2022-11-23T01:06:35.584Z,91.29
2022-11-23T01:09:05.088Z,91.55
2022-11-23T01:11:32.262Z,91.39
2022-11-23T01:14:00.108Z,91.43
2022-11-23T01:16:37.697Z,91.37
2022-11-23T01:19:06.400Z,91.15
2022-11-23T01:21:33.570Z,91.13
2022-11-23T01:24:00.604Z,91.52
2022-11-23T01:26:27.354Z,91.39
2022-11-23T01:28:57.515Z,91.41
2022-11-23T01:31:24.594Z,91.38
2022-11-23T01:33:58.672Z,91.43
2022-11-23T01:36:27.385Z,91.15
2022-11-23T01:38:54.273Z,91.32
2022-11-23T01:41:23.372Z,91.57
2022-11-23T01:43:50.361Z,91.45
2022-11-23T01:46:17.145Z,91.48
2022-11-23T01:48:50.019Z,91.26
2022-11-23T01:51:19.220Z,91.13
2022-11-23T01:53:46.529Z,91.42
2022-11-23T01:56:16.380Z,91.25
2022-11-23T01:58:44.576Z,91.36
2022-11-23T02:01:11.828Z,91.24
2022-11-23T02:03:38.624Z,90.97
2022-11-23T02:06:14.441Z,90.93
2022-11-23T02:08:41.653Z,91.04
2022-11-23T02:11:08.405Z,91.20
2022-11-23T02:13:35.135Z,91.09
2022-11-23T02:16:02.504Z,91.21
2022-11-23T02:18:30.518Z,91.02
2022-11-23T02:20:58.289Z,91.13
2022-11-23T02:23:28.132Z,91.05
2022-11-23T02:25:59.473Z,90.95
2022-11-23T02:28:29.325Z,91.02
2022-11-23T02:30:56.101Z,90.65
2022-11-23T02:33:23.542Z,91.12
2022-11-23T02:35:54.768Z,90.92
2022-11-23T02:38:23.051Z,90.88
2022-11-23T02:40:49.754Z,90.82
2022-11-23T02:43:16.550Z,90.88
2022-11-23T02:45:50.001Z,90.75
2022-11-23T02:48:17.535Z,91.34
2022-11-23T02:50:44.281Z,91.21
2022-11-23T02:53:11.187Z,91.08
2022-11-23T02:55:37.947Z,91.33
2022-11-23T02:58:04.980Z,91.37
2022-11-23T03:00:31.997Z,91.64
2022-11-23T03:02:59.973Z,91.43
2022-11-23T03:05:26.964Z,91.76
2022-11-23T03:07:53.876Z,91.70
2022-11-23T03:10:20.949Z,91.73
2022-11-23T03:12:49.308Z,91.78
2022-11-23T03:15:16.127Z,91.76
2022-11-23T03:17:42.927Z,91.60
2022-11-23T03:20:11.655Z,91.52
2022-11-23T03:22:40.001Z,91.21
2022-11-23T03:25:10.799Z,91.28
2022-11-23T03:27:39.190Z,91.27
2022-11-23T03:30:07.543Z,91.24
2022-11-23T03:32:35.501Z,91.28
2022-11-23T03:35:03.613Z,91.17
2022-11-23T03:37:30.892Z,91.03
2022-11-23T03:39:57.942Z,91.05
2022-11-23T03:42:47.616Z,90.87
2022-11-23T03:45:14.389Z,90.96
2022-11-23T03:47:41.094Z,90.74
2022-11-23T03:50:08.316Z,90.77
2022-11-23T03:52:36.757Z,91.01
2022-11-23T03:55:03.730Z,90.84
2022-11-23T03:57:30.470Z,90.92
2022-11-23T03:59:58.688Z,90.70
2022-11-23T04:02:25.426Z,90.91
2022-11-23T04:05:01.304Z,90.74
2022-11-23T04:07:48.205Z,91.08
2022-11-23T04:10:18.793Z,91.02
2022-11-23T04:13:05.794Z,91.16
2022-11-23T04:15:32.580Z,91.04
2022-11-23T04:17:59.444Z,91.04
2022-11-23T04:20:26.254Z,91.07
2022-11-23T04:22:52.963Z,90.98
2022-11-23T04:25:19.688Z,91.20
2022-11-23T04:27:47.338Z,91.27
2022-11-23T04:30:14.939Z,91.40
2022-11-23T04:32:45.006Z,91.34
2022-11-23T04:35:12.252Z,91.21
2022-11-23T04:37:40.122Z,91.20
2022-11-23T04:40:09.389Z,91.43
2022-11-23T04:42:49.263Z,91.37
2022-11-23T04:45:16.071Z,91.40
2022-11-23T04:47:45.404Z,91.26
2022-11-23T04:50:13.413Z,90.76
2022-11-23T04:52:40.763Z,90.96
2022-11-23T04:55:11.783Z,90.77
2022-11-23T04:57:45.385Z,91.15
2022-11-23T05:00:12.985Z,91.03
2022-11-23T05:02:40.655Z,90.95
2022-11-23T05:05:14.689Z,90.88
2022-11-23T05:07:41.633Z,90.85
2022-11-23T05:10:09.474Z,91.03
2022-11-23T05:12:36.715Z,91.02
2022-11-23T05:15:04.767Z,91.27
2022-11-23T05:17:34.953Z,91.16
2022-11-23T05:20:02.201Z,91.49
2022-11-23T05:22:30.207Z,91.62
2022-11-23T05:24:56.940Z,91.61
2022-11-23T05:27:24.402Z,91.54
2022-11-23T05:29:51.101Z,91.39
2022-11-23T05:32:17.977Z,91.17
2022-11-23T05:34:44.786Z,91.50
2022-11-23T05:37:12.890Z,91.57
2022-11-23T05:39:47.479Z,91.86
2022-11-23T05:42:14.703Z,91.97
2022-11-23T05:44:42.238Z,92.07
2022-11-23T05:47:13.816Z,91.87
2022-11-23T05:49:41.060Z,91.82
2022-11-23T05:52:07.889Z,91.80
2022-11-23T05:54:35.843Z,91.67
2022-11-23T05:57:13.179Z,91.70
2022-11-23T05:59:41.271Z,91.56
2022-11-23T06:02:10.396Z,91.50
2022-11-23T06:04:37.130Z,91.29
2022-11-23T06:07:05.550Z,91.24
2022-11-23T06:09:54.496Z,90.92
2022-11-23T06:12:21.647Z,90.90
2022-11-23T06:14:48.803Z,90.95
2022-11-23T06:17:17.074Z,90.70
2022-11-23T06:19:47.250Z,90.57
2022-11-23T06:22:15.319Z,90.64
2022-11-23T06:24:52.071Z,90.36
2022-11-23T06:27:39.057Z,90.22
2022-11-23T06:30:19.002Z,89.88
2022-11-23T06:32:46.305Z,90.03
2022-11-23T06:35:13.399Z,90.31
2022-11-23T06:37:40.835Z,90.29
2022-11-23T06:41:08.192Z,90.31
2022-11-23T06:43:34.997Z,90.30
2022-11-23T06:46:06.410Z,90.00
2022-11-23T06:48:34.363Z,90.07
2022-11-23T06:51:01.638Z,89.91
2022-11-23T06:53:30.154Z,89.70
2022-11-23T06:56:00.440Z,89.88
2022-11-23T06:58:27.774Z,89.84
2022-11-23T07:00:54.461Z,89.73
2022-11-23T07:03:24.178Z,90.02
2022-11-23T07:05:56.241Z,89.70
2022-11-23T07:08:25.505Z,89.56
2022-11-23T07:10:53.482Z,89.48
2022-11-23T07:13:20.241Z,89.56
2022-11-23T07:15:46.994Z,89.56
2022-11-23T07:18:13.713Z,89.73
2022-11-23T07:20:45.864Z,89.91
2022-11-23T07:23:12.878Z,90.10
2022-11-23T07:25:40.004Z,90.16
2022-11-23T07:28:07.519Z,89.94
2022-11-23T07:30:34.820Z,89.92
2022-11-23T07:33:05.668Z,89.78
2022-11-23T07:35:32.991Z,89.91
2022-11-23T07:37:59.865Z,90.14
2022-11-23T07:40:27.187Z,90.06
2022-11-23T07:42:53.970Z,90.10
2022-11-23T07:45:20.645Z,90.00
2022-11-23T07:47:47.408Z,90.11
